SBKP/CPQ METAR and TAF weather

Enter ICAO airport designator
Station Type Date Time Source
SBKP METAR 2019/08/25 18:00 UTC NOAA

SBKP 251800Z 14009KT CAVOK 24/10 Q1023


Station Type Date Time Source
SBKP Decoded METAR 2019/08/25 18:00 UTC NOAA

Station name not available
Aug 25, 2019 - 02:00 PM EDT / 2019.08.25 1800 UTC
Wind: from the SE (140 degrees) at 10 MPH (9 KT):0
Visibility: greater than 7 mile(s):0
Temperature: 75 F (24 C)
Dew Point: 50 F (10 C)
Relative Humidity: 41%
Pressure (altimeter): 30.21 in. Hg (1023 hPa)
ob: SBKP 251800Z 14009KT CAVOK 24/10 Q1023
cycle: 18

Station Type Date Time Source
SBKP TAF 2019/08/25 18:51 UTC NOAA

TAF TAF SBKP 251645Z 2518/2618 14012KT 9999 FEW045 TN13/2609Z TX27/2617Z
BECMG 2519/2521 CAVOK
BECMG 2600/2602 12007KT PROB30 2608/2611 7000 NSC
BECMG 2611/2613 06005KT
RMK PGO

Example: see airport list